Time;durP1;ratioP1;P1;durP2;ratioP2;P2;SDS_P1;SDS_P2;PMS_P1;PMS_P2;Temp;Humidity;BMP_temperature;BMP_pressure;BME280_temperature;BME280_humidity;BME280_pressure;Samples;Min_cycle;Max_cycle;Signal;HPM_P1;HPM_P2
2023/06/11 00:01:42;;;;;;;10.07;8.32;;;;;;;-141.84;53.22;21204.22;4973068;28;20259;-59
2023/06/11 00:04:13;;;;;;;10.52;8.60;;;;;;;-141.84;53.04;21190.00;4974633;28;20291;-59
2023/06/11 00:06:43;;;;;;;9.20;8.40;;;;;;;-141.84;52.93;21263.19;4974314;28;20211;-59
2023/06/11 00:09:12;;;;;;;9.07;8.05;;;;;;;-141.84;53.42;21204.22;4970357;28;20216;-60
2023/06/11 00:11:41;;;;;;;10.68;8.95;;;;;;;-141.84;53.71;21198.13;4974242;28;20291;-59
2023/06/11 00:14:11;;;;;;;9.00;8.15;;;;;;;-141.84;53.78;21192.03;4977485;28;20209;-59
2023/06/11 00:16:43;;;;;;;9.27;8.30;;;;;;;-141.84;53.45;21202.19;4978256;28;20262;-59
2023/06/11 00:19:12;;;;;;;9.18;8.27;;;;;;;-141.84;53.70;21196.09;4974044;28;20234;-59
2023/06/11 00:21:43;;;;;;;9.27;8.45;;;;;;;-141.84;53.46;21200.16;4973505;28;20397;-60
2023/06/11 00:24:13;;;;;;;9.68;8.50;;;;;;;-141.84;53.03;21236.75;4973920;28;20226;-58
2023/06/11 00:26:42;;;;;;;9.55;8.60;;;;;;;-141.84;53.42;21179.81;4973936;28;20214;-58
2023/06/11 00:29:11;;;;;;;12.18;8.82;;;;;;;-141.84;53.11;21192.03;4974345;28;20287;-59
2023/06/11 00:31:41;;;;;;;9.32;8.02;;;;;;;-141.84;53.20;21181.84;4975655;28;20291;-58
2023/06/11 00:34:09;;;;;;;8.95;8.10;;;;;;;-141.84;52.60;21200.16;4993953;28;20627;-58
2023/06/11 00:36:40;;;;;;;11.32;8.35;;;;;;;-141.84;52.49;21177.78;4978845;28;20678;-59
2023/06/11 00:39:10;;;;;;;10.02;8.82;;;;;;;-141.84;52.13;21151.34;4974281;28;20231;-58
2023/06/11 00:41:45;;;;;;;8.63;7.75;;;;;;;-141.84;52.61;21169.66;4974669;28;20404;-59
2023/06/11 00:44:17;;;;;;;9.40;8.50;;;;;;;-141.84;51.85;21192.03;4973601;28;20262;-58
2023/06/11 00:46:51;;;;;;;9.80;7.97;;;;;;;-141.84;51.73;21230.66;4973538;28;20594;-59
2023/06/11 00:49:19;;;;;;;9.10;7.78;;;;;;;-141.84;51.80;21192.03;4974771;28;20622;-59
2023/06/11 00:51:48;;;;;;;9.57;7.78;;;;;;;-141.84;52.04;21137.13;4974408;28;20263;-58
2023/06/11 00:54:17;;;;;;;8.98;7.53;;;;;;;-141.84;52.31;21116.78;4974314;28;20232;-59
2023/06/11 00:56:46;;;;;;;8.05;7.35;;;;;;;-141.84;51.84;21122.91;4973444;28;20656;-58
2023/06/11 00:59:17;;;;;;;8.05;7.25;;;;;;;-141.84;52.30;21110.69;4973880;28;20294;-60
2023/06/11 01:01:56;;;;;;;9.07;7.75;;;;;;;-141.84;51.73;21137.13;4973858;28;20633;-60
2023/06/11 01:04:27;;;;;;;8.15;7.00;;;;;;;-141.84;51.20;21161.53;4960394;28;20196;-59
2023/06/11 01:07:00;;;;;;;9.82;7.05;;;;;;;-141.84;51.07;21135.09;4972462;28;20204;-59
2023/06/11 01:09:30;;;;;;;9.05;7.53;;;;;;;-141.84;51.21;21116.78;4973008;28;20648;-59
2023/06/11 01:11:59;;;;;;;8.32;7.50;;;;;;;-141.84;51.34;21092.41;4973015;28;20665;-59
2023/06/11 01:14:28;;;;;;;7.97;7.18;;;;;;;-141.84;51.64;21098.50;4972865;28;20290;-59
2023/06/11 01:17:04;;;;;;;7.50;6.80;;;;;;;-141.84;51.92;21076.13;4972491;28;20303;-59
2023/06/11 01:20:11;;;;;;;11.95;7.13;;;;;;;-141.84;51.77;21078.16;4972803;28;20742;-58
2023/06/11 01:23:05;;;;;;;8.10;7.05;;;;;;;-141.84;51.09;21104.59;4971989;28;20694;-59
2023/06/11 01:25:44;;;;;;;10.35;7.63;;;;;;;-141.84;50.59;21106.63;4972610;28;20675;-58
2023/06/11 01:28:17;;;;;;;8.82;6.93;;;;;;;-141.84;50.67;21106.63;4972618;28;20196;-59
2023/06/11 01:30:49;;;;;;;8.48;6.85;;;;;;;-141.84;50.69;21118.84;4972609;28;20294;-59
2023/06/11 01:33:19;;;;;;;7.47;6.43;;;;;;;-141.84;50.82;21120.88;4987706;28;20210;-58
2023/06/11 01:35:48;;;;;;;8.73;6.88;;;;;;;-141.84;50.83;21086.31;4992169;28;20603;-60
2023/06/11 01:38:17;;;;;;;10.93;7.47;;;;;;;-141.84;50.91;21082.25;4991868;28;20210;-58
2023/06/11 01:40:46;;;;;;;8.68;7.60;;;;;;;-141.84;50.96;21106.63;4991996;28;20207;-58
2023/06/11 01:43:16;;;;;;;7.45;6.75;;;;;;;-141.84;51.39;21070.03;4991300;28;20290;-59
2023/06/11 01:45:44;;;;;;;7.93;7.15;;;;;;;-141.84;50.84;21131.03;4991835;28;20295;-58
2023/06/11 01:48:13;;;;;;;9.32;7.47;;;;;;;-141.84;50.45;21104.59;4992030;28;20235;-58
2023/06/11 01:50:41;;;;;;;11.25;7.28;;;;;;;-141.84;50.93;21100.53;4990974;28;20207;-58
2023/06/11 01:53:12;;;;;;;9.07;7.50;;;;;;;-141.84;51.20;21106.63;4991829;28;20302;-60
2023/06/11 01:55:42;;;;;;;7.68;6.95;;;;;;;-141.84;51.54;21065.97;4991465;28;20192;-58
2023/06/11 01:58:11;;;;;;;8.75;7.85;;;;;;;-141.84;51.58;21072.06;4983954;28;20204;-59
2023/06/11 02:00:41;;;;;;;9.57;7.50;;;;;;;-141.84;51.69;21047.69;4971981;28;20291;-59
2023/06/11 02:03:11;;;;;;;9.40;7.57;;;;;;;-141.84;51.47;21053.78;4972586;28;20319;-58
2023/06/11 02:05:39;;;;;;;12.73;7.18;;;;;;;-141.84;51.74;21027.34;4972043;28;20235;-58
2023/06/11 02:08:08;;;;;;;7.90;7.10;;;;;;;-141.84;51.73;21043.59;4971546;28;20496;-59
2023/06/11 02:10:37;;;;;;;8.43;7.57;;;;;;;-141.84;52.04;21011.09;4971820;28;20294;-59
2023/06/11 02:13:05;;;;;;;8.38;7.00;;;;;;;-141.84;52.04;20996.84;4971673;28;20200;-59
2023/06/11 02:15:34;;;;;;;9.98;7.90;;;;;;;-141.84;52.07;21002.94;4971464;28;20703;-60
2023/06/11 02:18:04;;;;;;;8.60;7.32;;;;;;;-141.84;51.57;21002.94;4971508;28;20665;-58
2023/06/11 02:20:32;;;;;;;10.07;7.30;;;;;;;-141.84;51.82;20978.56;4971812;28;20200;-59
2023/06/11 02:23:03;;;;;;;11.77;8.23;;;;;;;-141.84;51.64;21017.19;4971694;28;20228;-59
2023/06/11 02:25:32;;;;;;;7.88;7.07;;;;;;;-141.84;51.62;21019.22;4971895;28;20188;-59
2023/06/11 02:28:00;;;;;;;8.57;6.97;;;;;;;-141.84;51.47;21007.00;4971333;28;20239;-59
2023/06/11 02:30:29;;;;;;;9.30;6.78;;;;;;;-141.84;51.43;21002.94;4971229;28;20299;-58
2023/06/11 02:32:57;;;;;;;9.15;6.65;;;;;;;-141.84;51.72;21002.94;4983119;28;20203;-59
2023/06/11 02:35:27;;;;;;;7.93;7.10;;;;;;;-141.84;50.88;21004.97;4990887;28;20294;-59
2023/06/11 02:37:56;;;;;;;10.38;6.90;;;;;;;-141.84;50.71;20996.84;4990886;28;20200;-60
2023/06/11 02:40:24;;;;;;;9.13;7.18;;;;;;;-141.84;51.19;20948.06;4990550;28;20294;-58
2023/06/11 02:42:53;;;;;;;7.05;6.35;;;;;;;-141.84;50.74;20964.31;4990520;28;20234;-59
2023/06/11 02:45:21;;;;;;;7.72;6.60;;;;;;;-141.84;50.83;20986.69;4991041;28;20192;-60
2023/06/11 02:47:50;;;;;;;9.55;6.57;;;;;;;-141.84;50.21;20956.19;4990322;28;20290;-59
2023/06/11 02:50:18;;;;;;;8.85;6.53;;;;;;;-141.84;49.52;20970.41;4990756;28;20205;-60
2023/06/11 02:52:48;;;;;;;10.70;6.78;;;;;;;-141.84;49.76;20970.41;4990495;28;20691;-59
2023/06/11 02:55:17;;;;;;;7.18;6.15;;;;;;;-141.84;49.47;20990.75;4982577;28;20208;-59
2023/06/11 02:57:45;;;;;;;7.55;5.75;;;;;;;-141.84;49.45;20978.56;4971284;28;20228;-60
2023/06/11 03:00:14;;;;;;;7.18;5.90;;;;;;;-141.84;49.19;20964.31;4971358;28;20299;-59
2023/06/11 03:02:43;;;;;;;6.18;5.60;;;;;;;-141.84;48.98;20954.16;4973019;28;20643;-59
2023/06/11 03:05:11;;;;;;;8.98;5.53;;;;;;;-141.84;49.24;20960.25;4975264;28;20208;-59
2023/06/11 03:07:40;;;;;;;6.80;6.10;;;;;;;-141.84;48.97;20939.94;4968450;28;20211;-59
2023/06/11 03:10:11;;;;;;;7.03;5.65;;;;;;;-141.84;49.43;20905.38;4956103;29;20263;-59
2023/06/11 03:12:39;;;;;;;6.57;5.78;;;;;;;-141.84;49.51;20935.88;4955936;29;20297;-59
2023/06/11 03:15:09;;;;;;;7.30;5.47;;;;;;;-141.84;48.90;20956.19;4938406;29;20491;-60
2023/06/11 03:17:38;;;;;;;7.05;5.70;;;;;;;-141.84;48.67;20974.50;4955337;29;20215;-58
2023/06/11 03:20:08;;;;;;;6.30;5.65;;;;;;;-141.84;48.90;20974.50;4965010;28;20250;-60
2023/06/11 03:22:36;;;;;;;6.25;5.63;;;;;;;-141.84;48.60;20972.47;4974606;28;20750;-59
2023/06/11 03:25:06;;;;;;;7.55;5.63;;;;;;;-141.84;47.83;21021.25;4974452;28;20755;-59
2023/06/11 03:27:36;;;;;;;9.70;6.13;;;;;;;-141.84;47.89;20986.69;4974998;28;20204;-59
2023/06/11 03:30:05;;;;;;;6.97;5.78;;;;;;;-141.84;48.41;20974.50;4974399;28;20679;-59
2023/06/11 03:32:34;;;;;;;8.00;6.22;;;;;;;-141.84;48.34;20976.53;4983958;28;20235;-59
2023/06/11 03:35:03;;;;;;;6.72;5.75;;;;;;;-141.84;48.91;20976.53;4994176;28;20231;-58
2023/06/11 03:37:31;;;;;;;7.85;6.00;;;;;;;-141.84;48.16;20984.66;4994511;28;20262;-59
2023/06/11 03:40:00;;;;;;;8.05;6.20;;;;;;;-141.84;48.37;20952.13;4994133;28;20226;-59
2023/06/11 03:42:29;;;;;;;7.40;5.93;;;;;;;-141.84;48.61;20941.97;4993945;28;20671;-59
2023/06/11 03:44:59;;;;;;;6.80;6.07;;;;;;;-141.84;48.00;20996.84;4993585;28;20322;-59
2023/06/11 03:47:27;;;;;;;7.63;5.85;;;;;;;-141.84;47.53;20980.59;4993575;28;20227;-59
2023/06/11 03:49:56;;;;;;;9.45;5.72;;;;;;;-141.84;48.28;20976.53;4993480;28;20234;-60
2023/06/11 03:52:24;;;;;;;6.85;5.95;;;;;;;-141.84;48.55;20960.25;4978804;28;20243;-59
2023/06/11 03:54:53;;;;;;;7.47;5.40;;;;;;;-141.84;48.74;20964.31;4974118;28;20243;-59
2023/06/11 03:57:21;;;;;;;10.02;5.80;;;;;;;-141.84;47.12;21055.81;4974743;28;20254;-59
2023/06/11 03:59:50;;;;;;;6.43;5.60;;;;;;;-141.84;47.81;21004.97;4974360;28;20236;-59
2023/06/11 04:02:21;;;;;;;6.53;5.78;;;;;;;-141.84;47.68;20996.84;4962300;28;20287;-59
2023/06/11 04:04:50;;;;;;;6.18;5.28;;;;;;;-141.84;47.91;21015.16;4973796;28;20757;-59
2023/06/11 04:07:19;;;;;;;7.10;5.43;;;;;;;-141.84;48.53;21013.13;4973223;28;20200;-59
2023/06/11 04:09:47;;;;;;;6.68;5.78;;;;;;;-141.84;47.91;20998.88;4974315;28;20240;-58
2023/06/11 04:12:16;;;;;;;8.50;5.53;;;;;;;-141.84;47.88;21039.53;4974266;28;20204;-59
2023/06/11 04:14:44;;;;;;;6.93;5.32;;;;;;;-141.84;47.46;21072.06;4973836;28;20289;-59
2023/06/11 04:17:13;;;;;;;5.95;5.38;;;;;;;-141.84;47.56;21047.69;4973839;28;20342;-59
2023/06/11 04:19:43;;;;;;;6.20;5.60;;;;;;;-141.84;47.84;21011.09;4974459;28;20200;-59
2023/06/11 04:22:12;;;;;;;9.27;5.07;;;;;;;-141.84;48.10;20992.78;4974263;28;20308;-59
2023/06/11 04:24:40;;;;;;;7.85;5.30;;;;;;;-141.84;48.48;21027.34;4974191;28;20224;-58
2023/06/11 04:27:11;;;;;;;8.40;5.32;;;;;;;-141.84;48.34;21013.13;4973922;28;20255;-59
2023/06/11 04:29:40;;;;;;;6.93;5.53;;;;;;;-141.84;47.65;21086.31;4973681;28;20207;-57
2023/06/11 04:32:09;;;;;;;8.50;6.03;;;;;;;-141.84;47.53;21049.72;4979749;28;20650;-59
2023/06/11 04:34:38;;;;;;;9.13;5.70;;;;;;;-141.84;47.96;21047.69;4993104;28;20256;-58
2023/06/11 04:37:09;;;;;;;6.47;5.15;;;;;;;-141.84;47.66;21045.63;4993332;28;20246;-58
2023/06/11 04:39:37;;;;;;;6.35;5.68;;;;;;;-141.84;47.04;21096.47;4993001;28;20207;-59
2023/06/11 04:42:06;;;;;;;10.25;5.85;;;;;;;-141.84;47.03;21137.13;4993280;28;20298;-59
2023/06/11 04:44:36;;;;;;;8.55;5.25;;;;;;;-141.84;46.61;21200.16;4992525;28;20608;-59
2023/06/11 04:47:06;;;;;;;7.90;5.50;;;;;;;-141.84;46.95;21187.97;4990663;28;20629;-59
2023/06/11 04:49:35;;;;;;;6.40;5.80;;;;;;;-141.84;45.50;21387.19;4973355;28;20231;-59
2023/06/11 04:52:03;;;;;;;7.00;5.45;;;;;;;-141.84;41.37;21852.81;4973741;28;20236;-58
2023/06/11 04:54:33;;;;;;;6.35;5.32;;;;;;;-141.84;36.77;22428.31;4973105;28;20539;-58
2023/06/11 04:57:02;;;;;;;9.15;5.70;;;;;;;-141.84;34.78;22774.06;4973196;28;20314;-58
2023/06/11 04:59:30;;;;;;;11.25;6.40;;;;;;;-141.84;32.34;23128.00;4973264;28;20725;-59
2023/06/11 05:01:59;;;;;;;6.15;5.55;;;;;;;-141.84;32.64;23219.53;4973611;28;20200;-59
2023/06/11 05:04:28;;;;;;;7.78;6.25;;;;;;;-141.84;31.98;23420.91;4973174;28;20232;-60
2023/06/11 05:06:57;;;;;;;7.13;6.10;;;;;;;-141.84;31.58;23443.28;4973137;28;20600;-59
2023/06/11 05:09:26;;;;;;;7.65;5.78;;;;;;;-141.84;30.55;23799.28;4973241;28;20234;-58
2023/06/11 05:11:56;;;;;;;6.75;6.15;;;;;;;-141.84;30.42;24006.81;4973643;28;20262;-59
2023/06/11 05:14:24;;;;;;;6.28;5.68;;;;;;;-141.84;29.32;24340.50;4973279;28;20238;-59
2023/06/11 05:16:53;;;;;;;7.22;5.70;;;;;;;-141.84;28.52;24521.59;4973210;28;20279;-59
2023/06/11 05:19:22;;;;;;;7.68;6.03;;;;;;;-141.84;29.27;24462.59;4973078;28;20198;-59
2023/06/11 05:21:50;;;;;;;6.57;5.90;;;;;;;-141.84;29.31;24309.97;4973026;28;20208;-59
2023/06/11 05:24:20;;;;;;;6.57;5.57;;;;;;;-141.84;29.00;24250.97;4972158;28;20307;-59
2023/06/11 05:26:54;;;;;;;6.32;5.75;;;;;;;-141.84;28.84;24293.69;4971889;28;20192;-58
2023/06/11 05:29:24;;;;;;;7.72;6.07;;;;;;;-141.84;29.99;23935.59;4972785;28;20739;-60
2023/06/11 05:31:52;;;;;;;6.65;5.78;;;;;;;-141.84;30.48;23874.56;4972334;28;20649;-59
2023/06/11 05:34:22;;;;;;;6.57;5.50;;;;;;;-141.84;29.80;23673.16;4972466;28;20200;-59
2023/06/11 05:36:51;;;;;;;7.22;5.45;;;;;;;-141.84;30.48;23486.00;4972371;28;20189;-58
2023/06/11 05:39:20;;;;;;;7.22;5.60;;;;;;;-141.84;31.82;22997.81;4973243;28;20204;-59
2023/06/11 05:41:49;;;;;;;7.63;5.90;;;;;;;-141.84;33.57;22670.34;4973843;28;20286;-59
2023/06/11 05:44:18;;;;;;;6.30;5.70;;;;;;;-141.84;34.74;22410.03;4973690;28;20331;-58
2023/06/11 05:46:48;;;;;;;8.05;5.45;;;;;;;-141.84;36.45;22237.16;4973548;28;20235;-59
2023/06/11 05:49:16;;;;;;;6.82;6.00;;;;;;;-141.84;36.29;22135.47;4974204;28;20215;-59
2023/06/11 05:51:45;;;;;;;6.13;5.53;;;;;;;-141.84;36.65;22092.78;4974366;28;20707;-58
2023/06/11 05:54:13;;;;;;;8.57;5.68;;;;;;;-141.84;37.40;22027.72;4975012;28;20239;-59
2023/06/11 05:56:42;;;;;;;7.10;6.10;;;;;;;-141.84;37.74;22035.84;4975005;28;20286;-59
2023/06/11 05:59:10;;;;;;;6.32;5.72;;;;;;;-141.84;38.22;22015.50;4976706;28;20210;-58
2023/06/11 06:01:44;;;;;;;7.72;5.90;;;;;;;-141.84;38.04;22009.41;4975720;28;20235;-60
2023/06/11 06:04:16;;;;;;;5.95;5.45;;;;;;;-141.84;37.95;22050.06;4974557;28;20192;-59
2023/06/11 06:06:45;;;;;;;8.45;5.72;;;;;;;-141.84;38.28;22046.00;4973496;28;20200;-59
2023/06/11 06:09:13;;;;;;;5.97;5.38;;;;;;;-141.84;38.05;22013.47;4973347;28;20204;-59
2023/06/11 06:11:42;;;;;;;6.30;5.80;;;;;;;-141.84;37.84;22029.75;4973829;28;20295;-60
2023/06/11 06:14:10;;;;;;;7.57;5.25;;;;;;;-141.84;38.15;22037.88;4973704;28;20263;-60
2023/06/11 06:16:39;;;;;;;6.07;5.53;;;;;;;-141.84;38.05;21991.09;4972841;28;20755;-59
2023/06/11 06:19:08;;;;;;;6.10;5.50;;;;;;;-141.84;38.28;21989.06;4974649;28;20212;-59
2023/06/11 06:21:38;;;;;;;6.18;5.57;;;;;;;-141.84;38.34;22023.63;4973060;28;20274;-59
2023/06/11 06:24:07;;;;;;;9.95;5.30;;;;;;;-141.84;38.37;22035.84;4973287;28;20204;-60
2023/06/11 06:26:40;;;;;;;9.05;5.43;;;;;;;-141.84;37.92;22102.94;4972982;28;20246;-59
2023/06/11 06:29:09;;;;;;;6.30;5.72;;;;;;;-141.84;38.13;22062.28;4973100;28;20192;-58
2023/06/11 06:31:37;;;;;;;7.82;5.47;;;;;;;-141.84;38.53;22111.09;4974371;28;20212;-59
2023/06/11 06:34:07;;;;;;;9.05;6.00;;;;;;;-141.84;37.93;22086.69;4992296;28;20258;-59
2023/06/11 06:36:37;;;;;;;6.60;5.35;;;;;;;-141.84;38.24;22068.38;4992254;28;20254;-59
2023/06/11 06:39:05;;;;;;;8.20;5.80;;;;;;;-141.84;38.51;22037.88;4992316;28;20183;-59
2023/06/11 06:41:34;;;;;;;5.57;5.00;;;;;;;-141.84;38.72;22074.47;4974083;28;20303;-59
2023/06/11 06:44:03;;;;;;;7.50;5.15;;;;;;;-141.84;39.16;22080.56;4972890;28;20275;-59
2023/06/11 06:46:32;;;;;;;8.18;5.63;;;;;;;-141.84;37.69;22153.78;4972279;28;20403;-59
2023/06/11 06:49:00;;;;;;;6.95;5.47;;;;;;;-141.84;38.44;22078.53;4972835;28;20242;-58
2023/06/11 06:51:31;;;;;;;7.82;5.60;;;;;;;-141.84;38.47;22074.47;4972523;28;20236;-59
2023/06/11 06:54:01;;;;;;;5.80;5.40;;;;;;;-141.84;38.35;22074.47;4972585;28;20184;-59
2023/06/11 06:56:30;;;;;;;6.25;5.65;;;;;;;-141.84;39.02;22023.63;4972759;28;20206;-59
2023/06/11 06:58:58;;;;;;;8.63;5.25;;;;;;;-141.84;39.41;22017.53;4972850;28;20348;-59
2023/06/11 07:01:27;;;;;;;7.28;5.38;;;;;;;-141.84;39.01;22066.34;4972543;28;20294;-59
2023/06/11 07:03:55;;;;;;;6.60;5.35;;;;;;;-141.84;39.57;22060.25;4972750;28;20259;-59
2023/06/11 07:06:25;;;;;;;5.93;5.32;;;;;;;-141.84;39.23;22090.75;4972685;28;20216;-59
2023/06/11 07:08:54;;;;;;;6.80;5.18;;;;;;;-141.84;38.90;22119.22;4972581;28;20251;-58
2023/06/11 07:11:24;;;;;;;6.68;5.43;;;;;;;-141.84;39.04;22086.69;4972306;28;20294;-59
2023/06/11 07:13:52;;;;;;;6.00;5.40;;;;;;;-141.84;39.01;22070.41;4972462;28;20702;-61
2023/06/11 07:16:21;;;;;;;5.80;5.07;;;;;;;-141.84;39.38;22123.28;4972485;28;20288;-60
2023/06/11 07:18:49;;;;;;;7.32;5.47;;;;;;;-141.84;39.29;22064.31;4972163;28;20654;-59
2023/06/11 07:21:18;;;;;;;8.10;5.18;;;;;;;-141.84;39.36;22033.81;4972504;28;20231;-59
2023/06/11 07:23:46;;;;;;;6.60;5.20;;;;;;;-141.84;39.47;22082.63;4972178;28;20250;-59
2023/06/11 07:26:15;;;;;;;5.25;4.75;;;;;;;-141.84;39.85;22046.00;4972465;28;20227;-59
2023/06/11 07:28:45;;;;;;;6.68;5.35;;;;;;;-141.84;39.73;22064.31;4972138;28;20708;-59
2023/06/11 07:31:17;;;;;;;13.38;5.38;;;;;;;-141.84;39.11;22111.09;4972329;28;20668;-59
2023/06/11 07:33:47;;;;;;;5.78;5.18;;;;;;;-141.84;39.79;22115.16;4990303;28;20203;-62
2023/06/11 07:36:17;;;;;;;6.28;5.30;;;;;;;-141.84;40.02;22084.66;4985959;28;20393;-61
2023/06/11 07:38:47;;;;;;;7.53;5.40;;;;;;;-141.84;39.47;22070.41;4972510;28;20255;-59
2023/06/11 07:41:16;;;;;;;6.63;5.13;;;;;;;-141.84;39.88;22041.94;4972325;28;20759;-59
2023/06/11 07:43:46;;;;;;;11.18;5.30;;;;;;;-141.84;40.09;22070.41;4972033;28;20267;-59
2023/06/11 07:46:16;;;;;;;7.32;5.30;;;;;;;-141.84;40.44;22041.94;4971693;28;20315;-59
2023/06/11 07:48:44;;;;;;;6.18;5.20;;;;;;;-141.84;40.41;22088.72;4983137;28;20206;-59
2023/06/11 07:51:14;;;;;;;5.40;4.82;;;;;;;-141.84;40.61;22074.47;4995163;28;20758;-59
2023/06/11 07:53:47;;;;;;;6.05;4.97;;;;;;;-141.84;40.76;22050.06;4995086;28;20278;-59
2023/06/11 07:56:16;;;;;;;7.25;5.78;;;;;;;-141.84;40.62;22086.69;4995301;28;20238;-59
2023/06/11 07:58:46;;;;;;;6.82;5.03;;;;;;;-141.84;40.70;22080.56;4982858;28;20206;-60
2023/06/11 08:01:15;;;;;;;6.53;5.10;;;;;;;-141.84;40.85;22082.63;4975569;28;20271;-59
2023/06/11 08:03:44;;;;;;;5.68;5.13;;;;;;;-141.84;41.11;22058.22;4975923;28;20277;-59
2023/06/11 08:06:12;;;;;;;6.07;5.13;;;;;;;-141.84;40.59;22098.88;4975123;28;20226;-60
2023/06/11 08:08:41;;;;;;;7.85;5.05;;;;;;;-141.84;40.77;22086.69;4974797;28;20558;-59
2023/06/11 08:11:09;;;;;;;5.72;4.78;;;;;;;-141.84;40.96;22052.09;4974216;28;20208;-59
2023/06/11 08:13:41;;;;;;;6.07;4.95;;;;;;;-141.84;40.71;22090.75;4974391;28;20211;-58
2023/06/11 08:16:10;;;;;;;5.97;5.13;;;;;;;-141.84;41.03;22092.78;4974313;28;20455;-59
2023/06/11 08:18:39;;;;;;;6.28;5.00;;;;;;;-141.84;40.85;22129.38;4974062;28;20672;-62
2023/06/11 08:21:08;;;;;;;5.38;4.88;;;;;;;-141.84;40.98;22137.50;4974307;28;20274;-60
2023/06/11 08:23:37;;;;;;;6.70;4.57;;;;;;;-141.84;40.69;22174.13;4974054;28;20771;-59
2023/06/11 08:26:06;;;;;;;7.55;5.30;;;;;;;-141.84;40.62;22198.53;4974459;28;20588;-60
2023/06/11 08:28:35;;;;;;;7.55;5.47;;;;;;;-141.84;41.13;22180.22;4974195;28;20199;-60
2023/06/11 08:31:05;;;;;;;9.00;5.05;;;;;;;-141.84;40.78;22153.78;4973550;28;20291;-62
2023/06/11 08:33:35;;;;;;;8.65;5.28;;;;;;;-141.84;40.93;22133.44;4976836;28;20290;-59
2023/06/11 08:36:04;;;;;;;6.38;5.20;;;;;;;-141.84;40.97;22174.13;4954710;29;20304;-60
2023/06/11 08:38:32;;;;;;;8.55;5.53;;;;;;;-141.84;40.67;22220.91;4954676;29;20211;-59
2023/06/11 08:41:03;;;;;;;8.27;5.25;;;;;;;-141.84;40.49;22172.09;4954316;29;20192;-59
2023/06/11 08:43:33;;;;;;;5.63;5.10;;;;;;;-141.84;39.97;22261.56;4973714;28;20331;-60
2023/06/11 08:46:01;;;;;;;6.03;5.50;;;;;;;-141.84;39.88;22241.22;4970225;28;20286;-59
2023/06/11 08:48:31;;;;;;;6.03;5.05;;;;;;;-141.84;39.54;22277.84;4981220;28;20299;-59
2023/06/11 08:51:04;;;;;;;6.47;5.35;;;;;;;-141.84;39.70;22253.44;4975356;28;20259;-59
2023/06/11 08:53:33;;;;;;;8.32;5.25;;;;;;;-141.84;38.60;22298.16;4973069;28;20307;-59
2023/06/11 08:56:01;;;;;;;6.40;5.55;;;;;;;-141.84;38.88;22294.09;4979252;28;20586;-60
2023/06/11 08:58:33;;;;;;;6.63;5.43;;;;;;;-141.84;37.93;22277.84;4968257;28;20306;-59
2023/06/11 09:01:09;;;;;;;5.25;4.75;;;;;;;-141.84;38.07;22314.44;4972380;28;20236;-58
2023/06/11 09:03:37;;;;;;;12.05;5.13;;;;;;;-141.84;37.49;22395.78;4974475;28;20207;-59
2023/06/11 09:06:08;;;;;;;7.72;5.03;;;;;;;-141.84;37.08;22412.06;4973655;28;20615;-59
2023/06/11 09:08:36;;;;;;;4.70;4.25;;;;;;;-141.84;36.95;22393.75;4973298;28;20641;-59
2023/06/11 09:11:06;;;;;;;7.70;4.72;;;;;;;-141.84;36.63;22414.09;4973862;28;20208;-59
2023/06/11 09:13:35;;;;;;;6.13;4.97;;;;;;;-141.84;36.90;22375.44;4975578;28;20247;-58
2023/06/11 09:16:03;;;;;;;6.00;4.60;;;;;;;-141.84;36.77;22458.84;4992360;28;20208;-60
2023/06/11 09:18:32;;;;;;;5.40;4.60;;;;;;;-141.84;37.01;22475.09;4983365;28;20188;-59
2023/06/11 09:21:01;;;;;;;7.97;4.80;;;;;;;-141.84;36.96;22491.38;4990101;28;20199;-59
2023/06/11 09:23:31;;;;;;;7.45;4.72;;;;;;;-141.84;35.48;22481.22;4992836;28;20213;-59
2023/06/11 09:26:00;;;;;;;6.45;4.65;;;;;;;-141.84;35.96;22487.31;4993017;28;20287;-59
2023/06/11 09:28:30;;;;;;;7.13;4.88;;;;;;;-141.84;36.20;22458.84;4987783;28;20695;-59
2023/06/11 09:31:00;;;;;;;6.60;4.60;;;;;;;-141.84;36.40;22481.22;4971964;28;20206;-58
2023/06/11 09:33:30;;;;;;;8.02;4.50;;;;;;;-141.84;35.43;22509.69;4989958;28;20199;-58
2023/06/11 09:35:59;;;;;;;6.82;4.63;;;;;;;-141.84;35.55;22507.66;4992729;28;20203;-59
2023/06/11 09:38:33;;;;;;;7.47;4.68;;;;;;;-141.84;35.50;22525.94;4983612;28;20651;-59
2023/06/11 09:41:04;;;;;;;5.60;4.55;;;;;;;-141.84;35.17;22536.13;4972723;28;20629;-58
2023/06/11 09:43:34;;;;;;;5.07;4.28;;;;;;;-141.84;34.77;22542.22;4972900;28;20254;-59
2023/06/11 09:46:03;;;;;;;5.40;4.68;;;;;;;-141.84;34.67;22574.75;4972396;28;20624;-59
2023/06/11 09:48:32;;;;;;;5.47;4.60;;;;;;;-141.84;34.32;22546.28;4972036;28;20224;-58
2023/06/11 09:51:02;;;;;;;5.47;4.50;;;;;;;-141.84;33.80;22593.06;4972738;28;20675;-59
2023/06/11 09:53:34;;;;;;;5.20;4.70;;;;;;;-141.84;33.20;22625.59;4973021;28;20667;-59
2023/06/11 09:56:04;;;;;;;7.00;4.32;;;;;;;-141.84;33.81;22625.59;4972816;28;20239;-59
2023/06/11 09:58:40;;;;;;;4.93;4.45;;;;;;;-141.84;33.39;22680.53;4972447;28;20192;-60
2023/06/11 10:01:11;;;;;;;5.13;4.55;;;;;;;-141.84;33.98;22672.38;4970623;28;20302;-60
2023/06/11 10:03:40;;;;;;;5.97;4.78;;;;;;;-141.84;32.72;22729.34;4972207;28;20247;-59
2023/06/11 10:06:15;;;;;;;6.75;4.03;;;;;;;-141.84;32.33;22727.28;4971660;28;20581;-60
2023/06/11 10:08:48;;;;;;;5.55;4.55;;;;;;;-141.84;32.03;22725.25;4972171;28;20219;-59
2023/06/11 10:11:21;;;;;;;5.03;4.55;;;;;;;-141.84;32.34;22721.19;4971929;28;20239;-59
2023/06/11 10:13:59;;;;;;;5.10;4.60;;;;;;;-141.84;32.74;22733.41;4972420;28;20279;-58
2023/06/11 10:16:28;;;;;;;5.32;4.28;;;;;;;-141.84;32.67;22704.94;4972096;28;20194;-59
2023/06/11 10:19:06;;;;;;;5.57;4.72;;;;;;;-141.84;32.25;22774.06;4971991;28;20206;-59
2023/06/11 10:21:36;;;;;;;9.02;5.15;;;;;;;-141.84;33.70;22745.59;4972064;28;20395;-59
2023/06/11 10:24:07;;;;;;;6.32;5.30;;;;;;;-141.84;34.15;22676.44;4972241;28;20208;-59
2023/06/11 10:26:36;;;;;;;5.45;4.95;;;;;;;-141.84;35.09;22721.19;4972129;28;20189;-60
2023/06/11 10:29:11;;;;;;;6.55;5.10;;;;;;;-141.84;34.07;22747.63;4965650;28;20247;-59
2023/06/11 10:31:42;;;;;;;5.80;5.00;;;;;;;-141.84;34.58;22747.63;4973704;28;20215;-59
2023/06/11 10:34:15;;;;;;;5.55;5.05;;;;;;;-141.84;34.73;22727.28;4986496;28;20218;-58
2023/06/11 10:36:43;;;;;;;9.40;5.15;;;;;;;-141.84;34.88;22737.47;4971748;28;20624;-61
2023/06/11 10:39:22;;;;;;;6.53;5.20;;;;;;;-141.84;34.49;22778.16;4971898;28;20251;-58
2023/06/11 10:42:00;;;;;;;5.97;5.32;;;;;;;-141.84;33.95;22782.22;4972021;28;20608;-59
2023/06/11 10:44:29;;;;;;;5.28;4.88;;;;;;;-141.84;34.06;22778.16;4971834;28;20239;-59
2023/06/11 10:47:01;;;;;;;5.35;4.85;;;;;;;-141.84;34.20;22761.88;4985909;28;20758;-59
2023/06/11 10:49:30;;;;;;;6.03;5.30;;;;;;;-141.84;34.96;22796.44;4991015;28;20184;-59
2023/06/11 10:52:02;;;;;;;5.78;4.85;;;;;;;-141.84;34.33;22778.16;4991012;28;20314;-60
2023/06/11 10:54:36;;;;;;;5.43;4.93;;;;;;;-141.84;34.44;22798.47;4990827;28;20188;-59
2023/06/11 10:57:07;;;;;;;5.82;5.18;;;;;;;-141.84;34.98;22776.09;4991046;28;20314;-59
2023/06/11 10:59:36;;;;;;;10.13;5.68;;;;;;;-141.84;35.14;22839.16;4971857;28;20632;-59
2023/06/11 11:02:05;;;;;;;7.05;5.60;;;;;;;-141.84;34.02;22859.50;4971904;28;20196;-59
2023/06/11 11:04:34;;;;;;;7.57;5.55;;;;;;;-141.84;34.29;22845.25;4971438;28;20208;-59
2023/06/11 11:07:07;;;;;;;6.22;5.72;;;;;;;-141.84;34.74;22847.28;4971520;28;20223;-59
2023/06/11 11:09:38;;;;;;;6.82;5.55;;;;;;;-141.84;35.21;22835.09;4971818;28;20288;-58
2023/06/11 11:12:08;;;;;;;6.63;6.03;;;;;;;-141.84;35.55;22794.41;4971429;28;20311;-60
2023/06/11 11:14:36;;;;;;;5.97;5.38;;;;;;;-141.84;35.88;22818.81;4971632;28;20292;-58
2023/06/11 11:17:06;;;;;;;6.82;5.85;;;;;;;-141.84;36.01;22810.69;4970987;28;20208;-59
2023/06/11 11:19:36;;;;;;;6.00;5.50;;;;;;;-141.84;36.16;22847.28;4970839;28;20228;-59
2023/06/11 11:22:06;;;;;;;6.65;6.05;;;;;;;-141.84;34.61;22879.84;4971526;28;20204;-60
2023/06/11 11:24:36;;;;;;;6.90;5.22;;;;;;;-141.84;34.92;22851.38;4964153;28;20300;-60
2023/06/11 11:27:09;;;;;;;6.15;5.57;;;;;;;-141.84;34.46;22877.81;4955491;29;20632;-59
2023/06/11 11:29:38;;;;;;;6.65;6.03;;;;;;;-141.84;34.73;22820.84;4969359;28;20872;-60